KOMH

Orange County Airport

Orange, Virginia, USA
METAR KOMH 160135Z AUTO 03007KT 3SM +RA OVC005 10/10 A2992 RMK AO2
Observed Flight Rules
Dec-16 @ 01:35 UTC (13 minutes ago) Instrument Flight Rules
Wind Visibility Clouds Conditions
30° at 7 knots 3 miles
  • Overcast at 500' AGL
  • Heavy Rain
Temperatures Readings
Current 10°C / 50°F
Dewpoint 10°C / 50°F
Humidity 100%
Altimeter 29.92" Hg
Pressure 1013 hPa
Elevation 142
METAR KOMH 160135Z AUTO 03007KT 3SM +RA OVC005 10/10 A2992 RMK AO2
Observed Flight Rules
Dec-16 @ 01:35 UTC
(13 minutes ago)
IFR
Wind Visibility
30° at 7 knots 3 miles
Clouds
  • Overcast at 500' AGL
Conditions
  • Heavy Rain
Temperature Dewpoint
10°C / 50°F 10°C / 50°F
Humidity Altimeter Pressure
100% 29.92" Hg 1013 hPa